createdAt,value
2018-05-29T00:02:19.076Z,20.43
2018-05-29T00:04:47.438Z,20.35
2018-05-29T00:07:15.049Z,20.32
2018-05-29T00:09:42.615Z,20.25
2018-05-29T00:12:11.027Z,20.30
2018-05-29T00:14:39.565Z,20.16
2018-05-29T00:17:07.965Z,20.03
2018-05-29T00:19:36.342Z,19.89
2018-05-29T00:22:03.910Z,19.85
2018-05-29T00:24:31.493Z,19.75
2018-05-29T00:26:59.894Z,19.70
2018-05-29T00:29:27.521Z,19.65
2018-05-29T00:31:55.102Z,19.58
2018-05-29T00:34:22.682Z,19.76
2018-05-29T00:36:51.073Z,19.75
2018-05-29T00:39:19.404Z,19.74
2018-05-29T00:41:47.769Z,19.62
2018-05-29T00:44:16.137Z,19.86
2018-05-29T00:46:43.726Z,19.76
2018-05-29T00:49:12.004Z,19.78
2018-05-29T00:51:39.618Z,19.61
2018-05-29T00:54:07.190Z,19.56
2018-05-29T00:56:35.585Z,19.49
2018-05-29T00:59:03.162Z,19.63
2018-05-29T01:01:31.605Z,19.70
2018-05-29T01:04:00.050Z,19.58
2018-05-29T01:06:28.645Z,19.50
2018-05-29T01:08:56.266Z,19.59
2018-05-29T01:11:24.774Z,19.54
2018-05-29T01:13:52.433Z,19.69
2018-05-29T01:16:20.107Z,19.80
2018-05-29T01:18:47.770Z,19.79
2018-05-29T01:21:15.346Z,19.66
2018-05-29T01:23:42.967Z,19.60
2018-05-29T01:26:10.553Z,19.48
2018-05-29T01:28:38.191Z,19.48
2018-05-29T01:31:05.769Z,19.36
2018-05-29T01:33:33.349Z,19.24
2018-05-29T01:36:00.999Z,19.26
2018-05-29T01:38:28.660Z,19.18
2018-05-29T01:40:56.934Z,19.10
2018-05-29T01:43:24.601Z,19.07
2018-05-29T01:45:52.213Z,18.91
2018-05-29T01:48:19.824Z,18.94
2018-05-29T01:50:47.443Z,18.83
2018-05-29T01:53:15.049Z,18.81
2018-05-29T01:55:42.620Z,18.70
2018-05-29T01:58:10.197Z,18.64
2018-05-29T02:00:37.781Z,18.53
2018-05-29T02:03:05.348Z,18.55
2018-05-29T02:05:32.926Z,18.61
2018-05-29T02:08:00.508Z,18.54
2018-05-29T02:10:28.090Z,18.38
2018-05-29T02:12:55.669Z,18.41
2018-05-29T02:15:23.350Z,18.35
2018-05-29T02:17:50.993Z,18.24
2018-05-29T02:20:18.569Z,18.15
2018-05-29T02:22:46.151Z,18.14
2018-05-29T02:25:13.726Z,18.19
2018-05-29T02:27:41.297Z,18.11
2018-05-29T02:30:08.873Z,18.17
2018-05-29T02:32:36.454Z,18.03
2018-05-29T02:35:04.040Z,17.98
2018-05-29T02:37:31.653Z,17.92
2018-05-29T02:39:59.309Z,17.88
2018-05-29T02:42:26.981Z,17.87
2018-05-29T02:44:54.558Z,17.87
2018-05-29T02:47:22.134Z,17.81
2018-05-29T02:49:49.709Z,17.78
2018-05-29T02:52:17.285Z,17.79
2018-05-29T02:54:44.858Z,17.81
2018-05-29T02:57:12.545Z,17.75
2018-05-29T02:59:40.132Z,17.70
2018-05-29T03:02:07.705Z,17.74
2018-05-29T03:04:35.282Z,17.66
2018-05-29T03:07:02.862Z,17.54
2018-05-29T03:09:30.653Z,17.55
2018-05-29T03:11:58.237Z,17.54
2018-05-29T03:14:25.853Z,17.57
2018-05-29T03:16:53.430Z,17.65
2018-05-29T03:19:21.049Z,17.59
2018-05-29T03:21:48.624Z,17.56
2018-05-29T03:24:16.254Z,17.63
2018-05-29T03:26:43.890Z,17.85
2018-05-29T03:29:11.509Z,17.77
2018-05-29T03:31:39.092Z,17.88
2018-05-29T03:34:06.719Z,17.80
2018-05-29T03:36:34.296Z,17.80
2018-05-29T03:39:02.036Z,17.73
2018-05-29T03:41:29.650Z,17.77
2018-05-29T03:43:57.229Z,17.79
2018-05-29T03:46:24.845Z,17.80
2018-05-29T03:48:52.544Z,17.81
2018-05-29T03:51:20.201Z,17.89
2018-05-29T03:53:47.909Z,17.73
2018-05-29T03:56:15.521Z,17.75
2018-05-29T03:58:43.098Z,17.75
2018-05-29T04:01:10.725Z,17.88
2018-05-29T04:03:39.033Z,17.91
2018-05-29T04:06:06.654Z,17.87
2018-05-29T04:08:34.233Z,18.10
2018-05-29T04:11:01.849Z,18.03
2018-05-29T04:13:29.431Z,18.01
2018-05-29T04:15:57.046Z,18.17
2018-05-29T04:18:24.626Z,18.07
2018-05-29T04:20:52.249Z,18.04
2018-05-29T04:23:19.829Z,18.27
2018-05-29T04:25:47.408Z,18.26
2018-05-29T04:28:14.984Z,18.23
2018-05-29T04:30:42.564Z,18.35
2018-05-29T04:33:10.175Z,18.32
2018-05-29T04:35:38.312Z,18.42
2018-05-29T04:38:05.941Z,18.38
2018-05-29T04:40:33.523Z,18.55
2018-05-29T04:43:01.146Z,18.55
2018-05-29T04:45:28.728Z,18.66
2018-05-29T04:47:56.345Z,18.71
2018-05-29T04:50:23.920Z,18.95
2018-05-29T04:52:51.541Z,19.14
2018-05-29T04:55:19.638Z,19.15
2018-05-29T04:57:47.317Z,19.39
2018-05-29T05:00:14.897Z,19.52
2018-05-29T05:02:42.476Z,19.48
2018-05-29T05:05:10.058Z,19.54
2018-05-29T05:07:37.665Z,19.48
2018-05-29T05:10:05.245Z,19.76
2018-05-29T05:12:32.867Z,19.81
2018-05-29T05:15:00.549Z,19.89
2018-05-29T05:17:28.166Z,20.06
2018-05-29T05:19:55.790Z,20.11
2018-05-29T05:22:23.409Z,20.14
2018-05-29T05:24:50.985Z,20.39
2018-05-29T05:27:18.566Z,20.38
2018-05-29T05:29:46.145Z,20.53
2018-05-29T05:32:13.726Z,20.66
2018-05-29T05:34:41.305Z,20.82
2018-05-29T05:37:08.878Z,20.95
2018-05-29T05:39:36.449Z,21.13
2018-05-29T05:42:04.033Z,21.29
2018-05-29T05:44:31.615Z,21.43
2018-05-29T05:46:59.196Z,21.58
2018-05-29T05:49:26.773Z,21.76
2018-05-29T05:51:54.349Z,21.87
2018-05-29T05:54:21.930Z,22.02
2018-05-29T05:56:49.595Z,22.13
2018-05-29T05:59:17.253Z,22.26
2018-05-29T06:01:44.922Z,22.40
2018-05-29T06:04:12.498Z,22.51
2018-05-29T06:06:40.180Z,22.64
2018-05-29T06:09:07.759Z,22.63
2018-05-29T06:11:35.387Z,22.73
2018-05-29T06:14:02.965Z,22.82
2018-05-29T06:16:30.553Z,22.90
2018-05-29T06:18:58.139Z,23.05
2018-05-29T06:21:25.726Z,23.15
2018-05-29T06:23:53.306Z,23.25
2018-05-29T06:26:20.879Z,23.24
2018-05-29T06:28:48.466Z,23.25
2018-05-29T06:31:16.049Z,23.35
2018-05-29T06:33:43.668Z,23.50
2018-05-29T06:36:12.164Z,23.56
2018-05-29T06:38:39.740Z,23.71
2018-05-29T06:41:07.350Z,23.75
2018-05-29T06:43:34.969Z,23.73
2018-05-29T06:46:02.549Z,23.82
2018-05-29T06:48:30.173Z,23.88
2018-05-29T06:50:57.755Z,24.07
2018-05-29T06:53:25.333Z,24.09
2018-05-29T06:55:53.032Z,24.21
2018-05-29T06:58:20.621Z,24.20
2018-05-29T07:00:48.197Z,24.38
2018-05-29T07:03:15.877Z,24.42
2018-05-29T07:05:43.463Z,24.47
2018-05-29T07:08:11.041Z,24.50
2018-05-29T07:10:38.928Z,24.59
2018-05-29T07:13:06.511Z,24.69
2018-05-29T07:15:34.093Z,24.84
2018-05-29T07:18:01.753Z,24.77
2018-05-29T07:20:29.374Z,24.91
2018-05-29T07:22:56.952Z,25.03
2018-05-29T07:25:24.569Z,25.01
2018-05-29T07:27:52.176Z,25.12
2018-05-29T07:30:19.800Z,25.45
2018-05-29T07:32:48.344Z,25.51
2018-05-29T07:35:27.438Z,25.51
2018-05-29T07:40:42.637Z,25.50
2018-05-29T07:43:10.218Z,25.51
2018-05-29T07:45:37.797Z,25.72
2018-05-29T07:48:05.369Z,25.64
2018-05-29T07:50:33.017Z,25.72
2018-05-29T07:53:00.595Z,25.85
2018-05-29T07:55:28.169Z,25.92
2018-05-29T07:57:55.746Z,26.05
2018-05-29T08:00:23.322Z,26.13
2018-05-29T08:02:50.894Z,26.06
2018-05-29T08:05:18.470Z,26.08
2018-05-29T08:07:46.054Z,26.12
2018-05-29T08:10:13.639Z,26.24
2018-05-29T08:12:41.217Z,26.37
2018-05-29T08:15:08.798Z,26.50
2018-05-29T08:17:36.381Z,26.49
2018-05-29T08:20:04.054Z,26.63
2018-05-29T08:22:31.646Z,26.67
2018-05-29T08:24:59.282Z,26.67
2018-05-29T08:27:26.863Z,26.83
2018-05-29T08:29:54.437Z,26.78
2018-05-29T08:32:22.011Z,26.86
2018-05-29T08:34:49.585Z,27.05
2018-05-29T08:37:17.154Z,27.07
2018-05-29T08:39:44.743Z,27.00
2018-05-29T08:42:12.337Z,27.08
2018-05-29T08:44:39.915Z,27.28
2018-05-29T08:47:07.494Z,27.52
2018-05-29T08:49:35.072Z,27.65
2018-05-29T08:52:02.651Z,27.69
2018-05-29T08:54:30.226Z,27.73
2018-05-29T08:56:57.806Z,27.76
2018-05-29T08:59:25.383Z,27.84
2018-05-29T09:01:52.958Z,27.88
2018-05-29T09:04:20.592Z,27.88
2018-05-29T09:06:48.214Z,28.04
2018-05-29T09:09:15.816Z,28.18
2018-05-29T09:11:43.386Z,28.21
2018-05-29T09:14:11.009Z,28.12
2018-05-29T09:16:38.614Z,28.20
2018-05-29T09:19:06.195Z,28.30
2018-05-29T09:21:33.785Z,28.30
2018-05-29T09:24:01.442Z,28.34
2018-05-29T09:26:29.062Z,28.32
2018-05-29T09:28:56.638Z,28.44
2018-05-29T09:31:24.210Z,28.50
2018-05-29T09:33:51.818Z,28.69
2018-05-29T09:36:20.125Z,28.63
2018-05-29T09:38:47.705Z,28.71
2018-05-29T09:41:15.283Z,28.77
2018-05-29T09:43:42.988Z,28.68
2018-05-29T09:46:10.569Z,28.93
2018-05-29T09:48:38.194Z,29.04
2018-05-29T09:51:05.767Z,29.19
2018-05-29T09:53:33.341Z,29.29
2018-05-29T09:56:00.919Z,29.34
2018-05-29T09:58:28.494Z,29.18
2018-05-29T10:00:56.077Z,29.18
2018-05-29T10:03:23.663Z,29.44
2018-05-29T10:05:51.242Z,29.55
2018-05-29T10:08:18.821Z,29.58
2018-05-29T10:10:46.422Z,29.50
2018-05-29T10:13:14.015Z,29.56
2018-05-29T10:15:41.609Z,29.65
2018-05-29T10:18:09.180Z,29.83
2018-05-29T10:20:36.792Z,29.77
2018-05-29T10:23:04.416Z,29.73
2018-05-29T10:25:32.033Z,29.92
2018-05-29T10:27:59.614Z,29.94
2018-05-29T10:30:27.186Z,30.02
2018-05-29T10:32:54.757Z,30.22
2018-05-29T10:35:22.326Z,30.23
2018-05-29T10:37:49.939Z,30.19
2018-05-29T10:40:17.514Z,30.07
2018-05-29T10:42:45.145Z,30.15
2018-05-29T10:45:12.724Z,30.40
2018-05-29T10:47:40.338Z,30.58
2018-05-29T10:50:07.909Z,30.57
2018-05-29T10:52:35.527Z,30.47
2018-05-29T10:55:03.155Z,30.60
2018-05-29T10:57:30.733Z,30.94
2018-05-29T10:59:58.369Z,30.65
2018-05-29T11:02:25.938Z,30.68
2018-05-29T11:04:53.520Z,30.98
2018-05-29T11:07:21.101Z,31.06
2018-05-29T11:09:48.678Z,30.95
2018-05-29T11:12:16.258Z,30.81
2018-05-29T11:14:43.875Z,30.88
2018-05-29T11:17:11.445Z,30.90
2018-05-29T11:19:39.065Z,30.60
2018-05-29T11:22:06.641Z,30.68
2018-05-29T11:24:34.223Z,30.76
2018-05-29T11:27:01.805Z,30.71
2018-05-29T11:29:29.381Z,30.67
2018-05-29T11:31:56.956Z,30.92
2018-05-29T11:34:24.540Z,30.63
2018-05-29T11:36:52.128Z,30.76
2018-05-29T11:39:19.702Z,30.90
2018-05-29T11:41:47.281Z,30.96
2018-05-29T11:44:14.869Z,30.94
2018-05-29T11:46:42.447Z,30.99
2018-05-29T11:49:10.026Z,31.14
2018-05-29T11:51:37.601Z,31.34
2018-05-29T11:54:05.215Z,31.53
2018-05-29T11:56:32.792Z,31.66
2018-05-29T11:59:00.405Z,31.71
2018-05-29T12:01:27.987Z,31.26
2018-05-29T12:03:56.407Z,31.52
2018-05-29T12:06:23.985Z,31.51
2018-05-29T12:08:51.568Z,31.48
2018-05-29T12:11:19.142Z,31.60
2018-05-29T12:13:46.721Z,31.38
2018-05-29T12:16:14.362Z,31.40
2018-05-29T12:18:41.932Z,31.49
2018-05-29T12:21:09.511Z,31.50
2018-05-29T12:23:37.121Z,31.53
2018-05-29T12:26:04.724Z,31.78
2018-05-29T12:28:32.297Z,31.82
2018-05-29T12:30:59.945Z,31.86
2018-05-29T12:33:27.518Z,31.95
2018-05-29T12:35:55.136Z,31.71
2018-05-29T12:38:22.712Z,31.72
2018-05-29T12:40:50.286Z,31.37
2018-05-29T12:43:17.901Z,31.43
2018-05-29T12:45:45.486Z,31.47
2018-05-29T12:48:13.959Z,31.63
2018-05-29T12:50:41.531Z,31.50
2018-05-29T12:53:09.105Z,31.70
2018-05-29T12:55:36.678Z,31.72
2018-05-29T12:58:04.249Z,31.57
2018-05-29T13:00:31.828Z,31.68
2018-05-29T13:02:59.408Z,31.94
2018-05-29T13:05:27.020Z,31.98
2018-05-29T13:07:54.585Z,31.77
2018-05-29T13:10:22.159Z,31.66
2018-05-29T13:12:49.769Z,31.65
2018-05-29T13:15:17.379Z,31.82
2018-05-29T13:17:44.946Z,31.83
2018-05-29T13:20:12.520Z,31.96
2018-05-29T13:22:40.090Z,31.89
2018-05-29T13:25:07.673Z,31.91
2018-05-29T13:27:35.259Z,32.04
2018-05-29T13:30:02.837Z,32.25
2018-05-29T13:32:30.603Z,32.39
2018-05-29T13:34:58.157Z,32.15
2018-05-29T13:37:25.742Z,32.27
2018-05-29T13:39:53.317Z,32.26
2018-05-29T13:42:20.897Z,32.16
2018-05-29T13:44:48.521Z,32.23
2018-05-29T13:47:16.105Z,32.35
2018-05-29T13:49:43.683Z,32.50
2018-05-29T13:52:12.083Z,32.89
2018-05-29T13:54:39.657Z,32.96
2018-05-29T13:57:07.237Z,33.01
2018-05-29T13:59:34.852Z,32.67
2018-05-29T14:02:02.432Z,32.91
2018-05-29T14:04:30.038Z,33.21
2018-05-29T14:06:57.617Z,32.97
2018-05-29T14:09:25.207Z,33.20
2018-05-29T14:11:52.825Z,33.02
2018-05-29T14:14:20.401Z,33.21
2018-05-29T14:16:47.975Z,33.12
2018-05-29T14:19:15.553Z,32.78
2018-05-29T14:21:43.169Z,33.01
2018-05-29T14:24:10.745Z,33.10
2018-05-29T14:26:38.324Z,33.01
2018-05-29T14:29:05.898Z,32.90
2018-05-29T14:31:33.530Z,33.13
2018-05-29T14:34:01.098Z,33.14
2018-05-29T14:36:28.675Z,33.37
2018-05-29T14:38:56.246Z,33.93
2018-05-29T14:41:23.820Z,34.12
2018-05-29T14:43:51.447Z,34.61
2018-05-29T14:46:19.008Z,34.57
2018-05-29T14:48:46.629Z,34.93
2018-05-29T14:51:14.206Z,35.21
2018-05-29T14:53:41.826Z,35.59
2018-05-29T14:56:09.410Z,35.75
2018-05-29T14:58:37.024Z,36.03
2018-05-29T15:01:04.598Z,36.25
2018-05-29T15:03:32.169Z,35.77
2018-05-29T15:05:59.749Z,36.40
2018-05-29T15:08:27.325Z,35.84
2018-05-29T15:10:54.907Z,35.67
2018-05-29T15:13:22.489Z,36.31
2018-05-29T15:15:50.079Z,35.91
2018-05-29T15:18:17.658Z,36.38
2018-05-29T15:20:45.274Z,36.90
2018-05-29T15:23:12.853Z,36.69
2018-05-29T15:25:40.472Z,36.84
2018-05-29T15:28:08.047Z,36.37
2018-05-29T15:30:35.661Z,36.48
2018-05-29T15:33:03.251Z,35.98
2018-05-29T15:35:30.863Z,36.41
2018-05-29T15:37:58.433Z,36.50
2018-05-29T15:40:26.024Z,35.85
2018-05-29T15:42:53.637Z,36.05
2018-05-29T15:45:21.233Z,35.90
2018-05-29T15:47:48.870Z,35.14
2018-05-29T15:50:16.449Z,33.72
2018-05-29T15:52:44.113Z,33.05
2018-05-29T15:55:11.690Z,32.56
2018-05-29T15:57:39.370Z,32.32
2018-05-29T16:00:06.950Z,31.96
2018-05-29T16:02:34.574Z,31.69
2018-05-29T16:05:02.157Z,31.63
2018-05-29T16:07:29.730Z,31.33
2018-05-29T16:09:57.309Z,31.25
2018-05-29T16:12:24.925Z,31.04
2018-05-29T16:14:52.591Z,30.92
2018-05-29T16:17:20.215Z,30.63
2018-05-29T16:19:47.802Z,30.52
2018-05-29T16:22:15.377Z,30.45
2018-05-29T16:24:42.981Z,30.25
2018-05-29T16:27:10.557Z,30.31
2018-05-29T16:29:38.129Z,30.13
2018-05-29T16:32:05.705Z,30.22
2018-05-29T16:34:33.304Z,30.12
2018-05-29T16:37:00.916Z,30.04
2018-05-29T16:39:28.605Z,30.15
2018-05-29T16:41:56.334Z,29.89
2018-05-29T16:44:23.996Z,29.85
2018-05-29T16:46:51.569Z,29.85
2018-05-29T16:49:19.262Z,29.73
2018-05-29T16:51:46.885Z,29.75
2018-05-29T16:54:14.549Z,29.63
2018-05-29T16:56:42.136Z,29.62
2018-05-29T16:59:09.723Z,29.65
2018-05-29T17:01:37.369Z,29.59
2018-05-29T17:04:04.993Z,29.45
2018-05-29T17:06:32.662Z,29.43
2018-05-29T17:09:00.322Z,29.36
2018-05-29T17:11:27.940Z,29.24
2018-05-29T17:13:55.522Z,29.03
2018-05-29T17:16:23.210Z,29.04
2018-05-29T17:18:50.877Z,28.97
2018-05-29T17:21:18.535Z,28.89
2018-05-29T17:23:46.197Z,28.86
2018-05-29T17:26:13.914Z,28.77
2018-05-29T17:28:41.533Z,28.80
2018-05-29T17:31:09.186Z,28.80
2018-05-29T17:33:37.129Z,28.65
2018-05-29T17:36:04.771Z,28.53
2018-05-29T17:38:32.397Z,28.55
2018-05-29T17:40:59.976Z,28.51
2018-05-29T17:43:27.605Z,28.37
2018-05-29T17:45:55.301Z,28.34
2018-05-29T17:48:22.930Z,28.26
2018-05-29T17:50:50.697Z,28.21
2018-05-29T17:53:18.277Z,28.14
2018-05-29T17:55:45.857Z,28.11
2018-05-29T17:58:13.434Z,28.11
2018-05-29T18:00:41.022Z,28.07
2018-05-29T18:03:08.602Z,28.04
2018-05-29T18:05:36.265Z,28.00
2018-05-29T18:08:03.850Z,27.84
2018-05-29T18:10:31.428Z,27.76
2018-05-29T18:12:59.005Z,27.62
2018-05-29T18:15:26.585Z,27.65
2018-05-29T18:17:54.273Z,27.59
2018-05-29T18:20:21.893Z,27.44
2018-05-29T18:22:49.492Z,27.34
2018-05-29T18:25:17.073Z,27.23
2018-05-29T18:27:44.658Z,27.19
2018-05-29T18:30:12.293Z,27.11
2018-05-29T18:32:39.871Z,27.07
2018-05-29T18:35:07.508Z,27.00
2018-05-29T18:37:35.094Z,27.08
2018-05-29T18:40:02.674Z,26.89
2018-05-29T18:42:30.294Z,26.79
2018-05-29T18:44:57.885Z,26.66
2018-05-29T18:47:25.457Z,26.47
2018-05-29T18:49:53.074Z,26.40
2018-05-29T18:52:20.736Z,26.43
2018-05-29T18:54:48.320Z,26.32
2018-05-29T18:57:15.906Z,26.26
2018-05-29T18:59:43.530Z,26.01
2018-05-29T19:02:11.228Z,25.82
2018-05-29T19:04:38.806Z,25.87
2018-05-29T19:07:06.426Z,25.80
2018-05-29T19:09:34.006Z,25.61
2018-05-29T19:12:01.638Z,25.45
2018-05-29T19:14:31.153Z,25.31
2018-05-29T19:16:58.832Z,25.18
2018-05-29T19:19:26.480Z,25.07
2018-05-29T19:21:54.170Z,25.09
2018-05-29T19:24:21.796Z,24.78
2018-05-29T19:26:49.381Z,24.67
2018-05-29T19:29:16.969Z,24.50
2018-05-29T19:31:44.597Z,24.42
2018-05-29T19:34:12.172Z,24.36
2018-05-29T19:36:39.758Z,24.23
2018-05-29T19:39:07.337Z,24.21
2018-05-29T19:41:34.918Z,24.24
2018-05-29T19:44:02.508Z,24.16
2018-05-29T19:46:30.095Z,24.05
2018-05-29T19:48:57.718Z,23.95
2018-05-29T19:51:25.293Z,23.94
2018-05-29T19:53:52.879Z,23.80
2018-05-29T19:56:20.498Z,23.92
2018-05-29T19:58:48.074Z,23.79
2018-05-29T20:01:15.674Z,23.82
2018-05-29T20:03:43.253Z,23.69
2018-05-29T20:06:10.974Z,23.52
2018-05-29T20:08:38.816Z,23.46
2018-05-29T20:11:06.441Z,23.34
2018-05-29T20:13:34.018Z,23.29
2018-05-29T20:16:01.697Z,23.26
2018-05-29T20:18:29.894Z,23.33
2018-05-29T20:20:57.669Z,23.16
2018-05-29T20:23:25.250Z,23.14
2018-05-29T20:25:52.830Z,23.17
2018-05-29T20:28:20.453Z,23.01
2018-05-29T20:30:48.052Z,23.12
2018-05-29T20:33:15.639Z,22.97
2018-05-29T20:35:43.258Z,22.87
2018-05-29T20:38:11.438Z,22.93
2018-05-29T20:40:39.149Z,22.76
2018-05-29T20:43:06.843Z,22.76
2018-05-29T20:45:34.422Z,22.73
2018-05-29T20:48:02.044Z,22.69
2018-05-29T20:50:29.622Z,22.76
2018-05-29T20:52:57.241Z,22.75
2018-05-29T20:55:24.852Z,22.65
2018-05-29T20:57:52.474Z,22.52
2018-05-29T21:00:20.092Z,22.42
2018-05-29T21:02:47.679Z,22.45
2018-05-29T21:05:15.312Z,22.52
2018-05-29T21:07:42.891Z,22.49
2018-05-29T21:10:10.490Z,22.52
2018-05-29T21:12:38.153Z,22.50
2018-05-29T21:15:05.766Z,22.40
2018-05-29T21:17:33.387Z,22.35
2018-05-29T21:20:01.024Z,22.37
2018-05-29T21:22:28.602Z,22.34
2018-05-29T21:24:56.266Z,22.13
2018-05-29T21:27:23.840Z,22.12
2018-05-29T21:29:53.505Z,22.16
2018-05-29T21:32:21.078Z,22.00
2018-05-29T21:34:48.658Z,21.97
2018-05-29T21:37:16.322Z,22.00
2018-05-29T21:39:43.982Z,21.90
2018-05-29T21:42:11.562Z,21.91
2018-05-29T21:44:39.197Z,21.83
2018-05-29T21:47:06.779Z,21.98
2018-05-29T21:49:34.355Z,21.99
2018-05-29T21:52:02.085Z,21.90
2018-05-29T21:54:29.723Z,21.72
2018-05-29T21:56:57.417Z,21.61
2018-05-29T21:59:25.080Z,21.60
2018-05-29T22:01:52.742Z,21.44
2018-05-29T22:04:20.369Z,21.44
2018-05-29T22:06:47.953Z,21.33
2018-05-29T22:09:15.530Z,21.32
2018-05-29T22:11:43.113Z,21.19
2018-05-29T22:14:10.736Z,21.08
2018-05-29T22:16:39.145Z,21.01
2018-05-29T22:19:06.778Z,20.96
2018-05-29T22:21:34.468Z,20.97
2018-05-29T22:24:02.125Z,20.91
2018-05-29T22:26:29.710Z,20.92
2018-05-29T22:28:57.337Z,20.83
2018-05-29T22:31:25.737Z,20.74
2018-05-29T22:33:53.313Z,20.72
2018-05-29T22:36:20.901Z,20.77
2018-05-29T22:38:48.481Z,20.69
2018-05-29T22:41:16.166Z,20.60
2018-05-29T22:43:43.741Z,20.62
2018-05-29T22:46:11.329Z,20.50
2018-05-29T22:48:38.953Z,20.47
2018-05-29T22:51:06.624Z,20.42
2018-05-29T22:53:34.204Z,20.35
2018-05-29T22:56:01.781Z,20.29
2018-05-29T22:58:29.358Z,20.22
2018-05-29T23:00:56.935Z,20.15
2018-05-29T23:03:24.529Z,20.11
2018-05-29T23:05:52.117Z,20.04
2018-05-29T23:08:19.692Z,20.00
2018-05-29T23:10:47.273Z,19.95
2018-05-29T23:13:14.865Z,19.93
2018-05-29T23:15:42.478Z,19.93
2018-05-29T23:18:10.149Z,20.03
2018-05-29T23:20:37.807Z,20.00
2018-05-29T23:23:05.381Z,20.00
2018-05-29T23:25:32.997Z,19.92
2018-05-29T23:28:00.642Z,19.90
2018-05-29T23:30:28.217Z,19.84
2018-05-29T23:32:55.794Z,19.78
2018-05-29T23:35:23.377Z,19.74
2018-05-29T23:37:50.992Z,19.72
2018-05-29T23:40:19.414Z,19.64
2018-05-29T23:42:47.030Z,19.61
2018-05-29T23:45:14.690Z,19.57
2018-05-29T23:47:42.352Z,19.55
2018-05-29T23:50:09.933Z,19.58
2018-05-29T23:52:37.559Z,19.49
2018-05-29T23:55:05.134Z,19.53
2018-05-29T23:57:32.713Z,19.44
